Time;durP1;ratioP1;P1;durP2;ratioP2;P2;SDS_P1;SDS_P2;PMS_P1;PMS_P2;Temp;Humidity;BMP_temperature;BMP_pressure;BME280_temperature;BME280_humidity;BME280_pressure;Samples;Min_cycle;Max_cycle;Signal;HPM_P1;HPM_P2
2023/07/06 00:00:07;;;;;;;15.83;14.60;;;;;;;14.05;100.00;100971.47;5013814;28;20489;-46
2023/07/06 00:02:35;;;;;;;15.47;14.30;;;;;;;14.04;100.00;100971.66;5013980;28;20437;-47
2023/07/06 00:05:03;;;;;;;14.90;14.10;;;;;;;14.07;100.00;100974.75;5014363;28;20433;-43
2023/07/06 00:07:34;;;;;;;14.17;13.33;;;;;;;14.06;100.00;100978.50;5014100;28;20962;-42
2023/07/06 00:10:04;;;;;;;15.50;14.50;;;;;;;14.03;100.00;100980.78;5013747;28;20511;-42
2023/07/06 00:12:33;;;;;;;15.27;14.03;;;;;;;13.98;100.00;100984.06;5014053;28;20449;-42
2023/07/06 00:15:00;;;;;;;15.73;14.20;;;;;;;13.95;100.00;100981.03;5013802;28;20479;-41
2023/07/06 00:17:28;;;;;;;15.37;14.17;;;;;;;13.86;100.00;100981.22;5013964;28;20499;-45
2023/07/06 00:19:56;;;;;;;16.10;14.90;;;;;;;13.81;100.00;100983.75;5013042;28;20859;-43
2023/07/06 00:22:24;;;;;;;15.63;14.60;;;;;;;13.74;100.00;100988.28;5012649;28;20433;-45
2023/07/06 00:24:53;;;;;;;15.10;14.23;;;;;;;13.72;100.00;100994.91;5013114;28;20444;-43
2023/07/06 00:27:21;;;;;;;15.07;14.07;;;;;;;13.70;100.00;100988.94;5013270;28;20491;-43
2023/07/06 00:30:07;;;;;;;15.60;14.60;;;;;;;13.68;100.00;100993.66;5012730;28;20511;-43
2023/07/06 00:32:34;;;;;;;15.63;14.73;;;;;;;13.64;100.00;100998.66;5012990;28;20775;-43
2023/07/06 00:35:04;;;;;;;15.37;14.37;;;;;;;13.66;100.00;101007.28;5013382;28;20437;-46
2023/07/06 00:37:32;;;;;;;14.90;13.90;;;;;;;13.69;100.00;101014.09;5013217;28;20433;-44
2023/07/06 00:40:02;;;;;;;16.23;14.83;;;;;;;13.69;100.00;101016.75;5012605;28;20469;-44
2023/07/06 00:42:30;;;;;;;14.67;13.97;;;;;;;13.64;100.00;101014.72;5012491;28;20433;-44
2023/07/06 00:44:59;;;;;;;14.53;13.63;;;;;;;13.62;100.00;101018.66;5013350;28;20537;-46
2023/07/06 00:47:34;;;;;;;14.60;13.30;;;;;;;13.62;100.00;101026.69;5013277;28;20432;-42
2023/07/06 00:50:07;;;;;;;15.83;14.67;;;;;;;13.61;100.00;101035.75;5012722;28;20449;-43
2023/07/06 00:52:39;;;;;;;15.73;14.73;;;;;;;13.60;100.00;101029.56;5012237;28;20471;-44
2023/07/06 00:55:12;;;;;;;14.60;13.60;;;;;;;13.60;100.00;101034.09;5012271;28;20468;-46
2023/07/06 00:57:41;;;;;;;16.03;14.93;;;;;;;13.57;100.00;101039.88;5012677;28;20417;-44
2023/07/06 01:00:11;;;;;;;14.43;13.67;;;;;;;13.59;100.00;101030.59;5012000;28;20464;-43
2023/07/06 01:02:41;;;;;;;15.93;15.07;;;;;;;13.58;100.00;101028.13;5012038;28;20434;-44
2023/07/06 01:05:12;;;;;;;15.03;14.23;;;;;;;13.55;100.00;101044.63;5012977;28;20605;-42
2023/07/06 01:07:44;;;;;;;16.20;15.30;;;;;;;13.52;100.00;101050.41;5012480;28;20484;-42
2023/07/06 01:10:16;;;;;;;16.50;14.87;;;;;;;13.48;100.00;101051.84;5012020;28;20468;-45
2023/07/06 01:12:44;;;;;;;16.30;14.80;;;;;;;13.47;100.00;101052.88;5012646;28;20421;-44
2023/07/06 01:15:12;;;;;;;16.07;15.07;;;;;;;13.43;100.00;101063.19;5012831;28;20528;-44
2023/07/06 01:17:53;;;;;;;15.43;14.23;;;;;;;13.41;100.00;101065.22;5012898;28;20429;-44
2023/07/06 01:20:30;;;;;;;14.80;14.10;;;;;;;13.36;100.00;101073.06;5011545;28;20489;-47
2023/07/06 01:23:36;;;;;;;16.03;14.80;;;;;;;13.35;100.00;101073.28;5012204;28;20508;-43
2023/07/06 01:26:19;;;;;;;16.53;15.43;;;;;;;13.29;100.00;101074.91;5012762;28;20457;-44
2023/07/06 01:29:22;;;;;;;15.77;14.80;;;;;;;13.24;100.00;101075.53;5012047;28;20437;-44
2023/07/06 01:31:54;;;;;;;16.73;15.40;;;;;;;13.19;100.00;101085.22;5011149;28;20515;-44
2023/07/06 01:34:32;;;;;;;16.30;15.30;;;;;;;13.13;100.00;101084.19;5012173;28;20488;-44
2023/07/06 01:37:06;;;;;;;16.37;15.67;;;;;;;13.07;100.00;101084.16;5011570;28;20455;-47
2023/07/06 01:39:34;;;;;;;15.73;14.93;;;;;;;13.00;100.00;101086.81;5011620;28;20460;-45
2023/07/06 01:42:29;;;;;;;15.63;14.93;;;;;;;12.96;100.00;101084.78;5011945;28;20519;-45
2023/07/06 01:45:02;;;;;;;16.47;15.30;;;;;;;12.91;100.00;101093.41;5012591;28;20516;-43
2023/07/06 01:47:34;;;;;;;15.70;14.73;;;;;;;12.85;100.00;101096.06;5011516;28;20523;-44
2023/07/06 01:50:06;;;;;;;14.90;13.90;;;;;;;12.80;100.00;101095.84;5010992;28;20453;-43
2023/07/06 01:52:45;;;;;;;15.67;14.57;;;;;;;12.76;100.00;101106.13;5011638;28;20495;-44
2023/07/06 01:55:21;;;;;;;15.57;14.50;;;;;;;12.69;100.00;101108.78;5011896;28;20806;-46
2023/07/06 01:57:53;;;;;;;15.67;14.83;;;;;;;12.65;100.00;101106.72;5012013;28;20436;-44
2023/07/06 02:00:30;;;;;;;16.50;15.20;;;;;;;12.63;100.00;101112.25;5010742;28;20567;-45
2023/07/06 02:03:03;;;;;;;15.17;14.07;;;;;;;12.59;100.00;101116.38;5011816;28;20429;-44
2023/07/06 02:05:31;;;;;;;15.77;14.67;;;;;;;12.57;100.00;101121.06;5011774;28;20977;-44
2023/07/06 02:07:59;;;;;;;16.07;14.83;;;;;;;12.55;100.00;101117.78;5010884;28;20434;-44
2023/07/06 02:10:29;;;;;;;15.50;14.50;;;;;;;12.52;100.00;101115.50;5011113;28;20475;-46
2023/07/06 02:12:58;;;;;;;16.33;14.90;;;;;;;12.52;100.00;101125.38;5011800;28;20433;-43
2023/07/06 02:15:27;;;;;;;16.60;14.87;;;;;;;12.51;100.00;101124.59;5011907;28;20523;-46
2023/07/06 02:17:56;;;;;;;16.27;14.90;;;;;;;12.51;100.00;101127.25;5011309;28;20819;-45
2023/07/06 02:20:25;;;;;;;15.80;14.70;;;;;;;12.51;100.00;101131.78;5010272;28;20523;-44
2023/07/06 02:22:53;;;;;;;15.17;14.20;;;;;;;12.49;100.00;101133.81;5011017;28;20951;-44
2023/07/06 02:25:20;;;;;;;17.90;15.13;;;;;;;12.50;100.00;101135.47;5010920;28;20438;-46
2023/07/06 02:27:48;;;;;;;15.20;14.23;;;;;;;12.50;100.00;101136.31;5010420;28;20512;-45
2023/07/06 02:30:16;;;;;;;16.03;14.60;;;;;;;12.49;100.00;101140.00;5010218;28;20476;-43
2023/07/06 02:32:46;;;;;;;15.67;14.57;;;;;;;12.48;100.00;101137.53;5010720;28;20446;-43
2023/07/06 02:35:14;;;;;;;16.57;15.03;;;;;;;12.48;100.00;101138.34;5010535;28;20524;-44
2023/07/06 02:37:43;;;;;;;15.87;14.70;;;;;;;12.47;100.00;101146.56;5010652;28;20475;-44
2023/07/06 02:40:12;;;;;;;15.90;14.60;;;;;;;12.48;100.00;101140.19;5010443;28;20511;-44
2023/07/06 02:42:41;;;;;;;16.77;15.30;;;;;;;12.47;100.00;101146.56;5010444;28;20939;-42
2023/07/06 02:45:11;;;;;;;15.37;14.10;;;;;;;12.47;100.00;101150.06;5010747;28;20973;-44
2023/07/06 02:47:41;;;;;;;16.17;15.07;;;;;;;12.46;100.00;101143.06;5010412;28;20982;-45
2023/07/06 02:50:11;;;;;;;16.33;15.23;;;;;;;12.46;100.00;101150.25;5010275;28;20540;-46
2023/07/06 02:52:39;;;;;;;16.90;15.47;;;;;;;12.48;100.00;101153.56;5011009;28;20440;-46
2023/07/06 02:55:09;;;;;;;16.97;15.43;;;;;;;12.48;100.00;101167.78;5010587;28;20443;-44
2023/07/06 02:57:39;;;;;;;16.67;15.57;;;;;;;12.50;100.00;101164.91;5010968;28;20457;-48
2023/07/06 03:00:14;;;;;;;16.27;15.27;;;;;;;12.52;100.00;101152.97;5010146;28;20560;-49
2023/07/06 03:02:42;;;;;;;16.60;15.70;;;;;;;12.50;100.00;101165.72;5010858;28;20515;-43
2023/07/06 03:05:11;;;;;;;16.10;15.20;;;;;;;12.54;100.00;101164.31;5010704;28;20855;-46
2023/07/06 03:07:39;;;;;;;16.40;15.30;;;;;;;12.57;100.00;101161.22;5010858;28;20432;-43
2023/07/06 03:10:10;;;;;;;14.10;13.40;;;;;;;12.60;100.00;101174.19;5010147;28;20465;-46
2023/07/06 03:12:38;;;;;;;15.50;14.50;;;;;;;12.64;100.00;101174.63;5010509;28;20418;-47
2023/07/06 03:15:10;;;;;;;15.70;14.53;;;;;;;12.63;100.00;101175.66;5009646;28;20580;-45
2023/07/06 03:17:39;;;;;;;15.40;14.30;;;;;;;12.67;100.00;101175.06;5011026;28;20520;-44
2023/07/06 03:20:14;;;;;;;16.00;14.80;;;;;;;12.73;100.00;101174.25;5010116;28;20484;-42
2023/07/06 03:22:45;;;;;;;15.83;14.60;;;;;;;12.78;100.00;101185.19;5009832;28;20925;-43
2023/07/06 03:25:15;;;;;;;14.90;14.20;;;;;;;12.85;100.00;101185.22;5010900;28;20861;-44
2023/07/06 03:27:46;;;;;;;16.03;14.73;;;;;;;12.92;100.00;101194.09;5014246;28;20476;-45
2023/07/06 03:30:16;;;;;;;15.60;14.70;;;;;;;13.06;100.00;101197.63;5013189;28;20470;-43
2023/07/06 03:32:44;;;;;;;16.27;15.20;;;;;;;13.47;100.00;101192.19;5014192;28;20433;-44
2023/07/06 03:35:13;;;;;;;16.40;15.40;;;;;;;13.81;100.00;101192.81;5014535;28;20440;-44
2023/07/06 03:37:42;;;;;;;16.23;15.23;;;;;;;13.83;100.00;101190.75;5014547;28;20437;-44
2023/07/06 03:40:12;;;;;;;16.33;15.53;;;;;;;13.88;100.00;101186.63;5012714;28;20477;-45
2023/07/06 03:42:43;;;;;;;16.87;15.63;;;;;;;13.89;100.00;101177.56;5013261;28;20429;-45
2023/07/06 03:45:12;;;;;;;16.37;15.23;;;;;;;13.96;100.00;101181.06;5014337;28;20445;-44
2023/07/06 03:47:42;;;;;;;16.03;15.20;;;;;;;14.06;100.00;101187.66;5013683;28;20520;-44
2023/07/06 03:50:12;;;;;;;17.20;15.97;;;;;;;14.13;100.00;101191.13;5013459;28;21089;-44
2023/07/06 03:52:40;;;;;;;16.13;15.23;;;;;;;14.15;100.00;101189.09;5013641;28;20440;-43
2023/07/06 03:55:12;;;;;;;15.83;15.17;;;;;;;14.26;100.00;101191.13;5013358;28;20475;-44
2023/07/06 03:57:43;;;;;;;16.83;15.70;;;;;;;14.45;100.00;101191.31;5013740;28;20957;-46
2023/07/06 04:00:30;;;;;;;16.57;15.40;;;;;;;14.67;100.00;101190.00;5012975;28;20496;-43
2023/07/06 04:03:00;;;;;;;16.40;15.60;;;;;;;14.83;100.00;101193.03;5012362;28;20460;-47
2023/07/06 04:05:31;;;;;;;16.70;15.83;;;;;;;14.93;100.00;101190.69;5013132;28;20479;-42
2023/07/06 04:08:03;;;;;;;17.00;15.77;;;;;;;14.90;100.00;101193.00;5012828;28;20742;-44
2023/07/06 04:10:33;;;;;;;17.10;15.80;;;;;;;14.94;100.00;101199.59;5012195;28;20460;-44
2023/07/06 04:13:02;;;;;;;16.77;15.87;;;;;;;14.93;100.00;101190.69;5012465;28;20452;-42
2023/07/06 04:15:30;;;;;;;16.47;15.60;;;;;;;14.90;100.00;101193.00;5012680;28;20453;-45
2023/07/06 04:17:58;;;;;;;19.13;18.10;;;;;;;14.94;100.00;101203.09;5012662;28;20487;-44
2023/07/06 04:20:28;;;;;;;18.20;17.10;;;;;;;15.03;100.00;101203.69;5012749;28;20488;-42
2023/07/06 04:22:57;;;;;;;16.90;16.00;;;;;;;15.11;100.00;101203.44;5013870;28;20853;-45
2023/07/06 04:25:29;;;;;;;16.27;15.50;;;;;;;15.15;100.00;101203.81;5012706;28;20447;-46
2023/07/06 04:27:58;;;;;;;16.87;16.00;;;;;;;15.29;100.00;101221.53;5012446;28;20494;-44
2023/07/06 04:30:27;;;;;;;16.50;15.50;;;;;;;15.49;100.00;101215.03;5012153;28;20484;-45
2023/07/06 04:32:56;;;;;;;17.43;16.40;;;;;;;16.17;100.00;101209.69;5012577;28;20939;-43
2023/07/06 04:35:24;;;;;;;17.40;16.60;;;;;;;17.35;100.00;101212.88;5012794;28;20950;-43
2023/07/06 04:37:52;;;;;;;18.50;17.53;;;;;;;17.82;100.00;101206.56;5011571;28;20437;-48
2023/07/06 04:40:23;;;;;;;18.53;17.33;;;;;;;18.98;100.00;101186.72;5011304;28;20495;-43
2023/07/06 04:42:51;;;;;;;18.00;16.60;;;;;;;20.12;100.00;101193.56;5012236;28;20531;-47
2023/07/06 04:45:21;;;;;;;16.30;15.50;;;;;;;20.93;100.00;101185.47;5012233;28;21118;-44
2023/07/06 04:47:51;;;;;;;15.60;14.73;;;;;;;20.86;100.00;101192.97;5011791;28;20781;-44
2023/07/06 04:50:22;;;;;;;16.50;15.57;;;;;;;21.14;100.00;101193.84;5010864;28;20476;-46
2023/07/06 04:52:55;;;;;;;15.53;14.90;;;;;;;20.83;100.00;101188.06;5011934;28;20440;-45
2023/07/06 04:55:23;;;;;;;15.17;14.47;;;;;;;21.24;100.00;101183.09;5011988;28;20528;-44
2023/07/06 04:57:52;;;;;;;15.77;14.77;;;;;;;21.91;100.00;101191.59;5012940;28;20436;-44
2023/07/06 05:00:25;;;;;;;15.13;14.33;;;;;;;21.97;100.00;101185.13;5011008;28;20496;-45
2023/07/06 05:02:55;;;;;;;13.77;12.90;;;;;;;21.02;100.00;101188.56;5011682;28;20802;-46
2023/07/06 05:05:26;;;;;;;14.50;13.80;;;;;;;21.23;100.00;101190.44;5010891;28;20784;-46
2023/07/06 05:07:55;;;;;;;14.33;13.60;;;;;;;22.43;100.00;101184.31;5010938;28;20441;-45
2023/07/06 05:10:23;;;;;;;14.63;13.63;;;;;;;23.72;100.00;101186.03;5011379;28;20486;-45
2023/07/06 05:12:51;;;;;;;12.97;12.27;;;;;;;24.41;93.92;101190.88;5011602;28;20428;-46
2023/07/06 05:15:20;;;;;;;11.37;10.87;;;;;;;23.85;86.44;101187.41;5011385;28;20436;-44
2023/07/06 05:17:48;;;;;;;9.30;8.70;;;;;;;23.60;91.38;101186.31;5010519;28;20433;-46
2023/07/06 05:20:18;;;;;;;8.60;8.10;;;;;;;22.81;96.86;101194.03;5010302;28;21014;-43
2023/07/06 05:22:48;;;;;;;9.27;8.43;;;;;;;22.22;98.38;101203.50;5010762;28;20986;-45
2023/07/06 05:25:17;;;;;;;11.20;8.50;;;;;;;21.63;100.00;101198.13;5011810;28;20437;-46
2023/07/06 05:27:45;;;;;;;9.40;8.40;;;;;;;20.95;100.00;101210.44;5011847;28;20441;-45
2023/07/06 05:30:13;;;;;;;10.17;9.30;;;;;;;20.47;100.00;101213.06;5011022;28;20845;-44
2023/07/06 05:32:41;;;;;;;11.13;9.43;;;;;;;20.02;100.00;101215.06;5010743;28;20502;-44
2023/07/06 05:35:10;;;;;;;13.47;8.87;;;;;;;19.70;100.00;101207.53;5011073;28;20433;-44
2023/07/06 05:37:41;;;;;;;10.07;9.10;;;;;;;19.38;100.00;101219.09;5010653;28;20544;-48
2023/07/06 05:40:11;;;;;;;10.13;9.27;;;;;;;19.15;100.00;101226.25;5008373;28;20460;-43
2023/07/06 05:42:39;;;;;;;9.33;8.53;;;;;;;19.18;100.00;101227.63;5006075;28;20496;-43
2023/07/06 05:45:08;;;;;;;10.90;10.00;;;;;;;19.27;100.00;101229.72;5010957;28;20930;-43
2023/07/06 05:47:37;;;;;;;9.53;8.73;;;;;;;19.38;100.00;101233.47;5010930;28;20519;-44
2023/07/06 05:50:06;;;;;;;10.57;9.27;;;;;;;19.56;100.00;101241.38;5009693;28;20465;-45
2023/07/06 05:52:33;;;;;;;8.67;8.07;;;;;;;21.22;100.00;101234.06;5011332;28;20432;-46
2023/07/06 05:55:03;;;;;;;8.83;8.13;;;;;;;21.82;100.00;101236.56;5011577;28;20472;-45
2023/07/06 05:57:31;;;;;;;8.30;7.40;;;;;;;21.69;100.00;101242.41;5010747;28;20874;-44
2023/07/06 05:59:59;;;;;;;7.90;7.30;;;;;;;21.55;100.00;101239.31;5011675;28;20460;-47
2023/07/06 06:02:27;;;;;;;6.50;6.10;;;;;;;21.08;100.00;101243.66;5010347;28;20563;-44
2023/07/06 06:04:55;;;;;;;7.47;6.87;;;;;;;21.17;100.00;101242.16;5010402;28;20447;-44
2023/07/06 06:07:23;;;;;;;7.87;7.17;;;;;;;21.14;100.00;101250.81;5010255;28;20922;-43
2023/07/06 06:09:51;;;;;;;8.20;7.30;;;;;;;21.01;100.00;101257.41;5009340;28;21191;-45
2023/07/06 06:12:20;;;;;;;6.70;6.30;;;;;;;21.28;100.00;101261.00;5010202;28;20799;-44
2023/07/06 06:14:50;;;;;;;6.20;5.83;;;;;;;21.07;98.12;101256.38;5010106;28;20420;-44
2023/07/06 06:17:19;;;;;;;7.10;6.60;;;;;;;20.97;99.14;101261.69;5011596;28;20429;-44
2023/07/06 06:19:48;;;;;;;7.40;6.70;;;;;;;20.78;100.00;101268.50;5009276;28;20474;-43
2023/07/06 06:22:18;;;;;;;5.80;5.60;;;;;;;20.73;100.00;101263.81;5009607;28;20508;-44
2023/07/06 06:24:47;;;;;;;6.60;6.17;;;;;;;20.99;100.00;101267.69;5010479;28;20439;-44
2023/07/06 06:27:16;;;;;;;6.67;6.23;;;;;;;20.98;100.00;101276.88;5010528;28;20513;-45
2023/07/06 06:29:45;;;;;;;6.70;6.10;;;;;;;20.83;100.00;101282.94;5010681;28;20542;-44
2023/07/06 06:32:14;;;;;;;7.97;6.50;;;;;;;20.73;100.00;101290.09;5009719;28;20752;-45
2023/07/06 06:34:44;;;;;;;7.87;6.93;;;;;;;20.22;100.00;101294.72;5009840;28;20443;-47
2023/07/06 06:37:12;;;;;;;6.53;6.10;;;;;;;19.73;100.00;101292.81;5010304;28;20472;-44
2023/07/06 06:39:40;;;;;;;7.03;6.40;;;;;;;19.44;100.00;101293.91;5010252;28;20468;-43
2023/07/06 06:42:08;;;;;;;6.83;6.43;;;;;;;18.92;100.00;101299.31;5009672;28;20944;-42
2023/07/06 06:44:36;;;;;;;6.90;6.40;;;;;;;18.70;100.00;101301.78;5009901;28;20432;-43
2023/07/06 06:47:05;;;;;;;6.50;6.10;;;;;;;18.55;100.00;101300.63;5009163;28;20515;-43
2023/07/06 06:49:34;;;;;;;7.37;6.87;;;;;;;18.49;100.00;101301.56;5009575;28;20866;-45
2023/07/06 06:52:03;;;;;;;7.33;6.73;;;;;;;18.54;100.00;101307.09;5009486;28;20490;-43
2023/07/06 06:54:33;;;;;;;8.03;7.53;;;;;;;18.69;100.00;101310.97;5010628;28;20425;-47
2023/07/06 06:57:02;;;;;;;6.40;6.00;;;;;;;18.77;100.00;101298.97;5010981;28;20439;-45
2023/07/06 06:59:32;;;;;;;7.67;6.57;;;;;;;19.30;100.00;101302.25;5008776;28;20461;-43
2023/07/06 07:02:02;;;;;;;6.97;6.13;;;;;;;20.49;100.00;101303.03;5008604;28;20517;-46
2023/07/06 07:04:33;;;;;;;8.13;7.20;;;;;;;21.89;100.00;101299.66;5009697;28;20951;-43
2023/07/06 07:07:03;;;;;;;8.57;6.47;;;;;;;22.36;100.00;101295.16;5009673;28;20984;-43
2023/07/06 07:09:31;;;;;;;7.53;6.80;;;;;;;23.40;100.00;101288.91;5009953;28;21057;-43
2023/07/06 07:11:59;;;;;;;8.00;5.97;;;;;;;24.33;100.00;101290.38;5009774;28;20472;-44
2023/07/06 07:14:27;;;;;;;5.73;5.10;;;;;;;25.26;86.18;101282.50;5009231;28;20490;-45
2023/07/06 07:16:55;;;;;;;7.00;5.20;;;;;;;26.01;72.57;101288.59;5009774;28;20468;-44
2023/07/06 07:19:23;;;;;;;5.73;5.23;;;;;;;26.07;69.87;101292.91;5009634;28;20468;-45
2023/07/06 07:21:52;;;;;;;6.30;5.67;;;;;;;26.58;67.65;101285.06;5009244;28;20989;-42
2023/07/06 07:24:20;;;;;;;5.67;5.17;;;;;;;26.13;66.36;101283.56;5009768;28;20990;-45
2023/07/06 07:26:48;;;;;;;4.67;4.37;;;;;;;26.89;68.73;101287.19;5009653;28;20437;-43
2023/07/06 07:29:17;;;;;;;4.87;4.10;;;;;;;26.13;60.08;101300.78;5009009;28;20712;-45
2023/07/06 07:31:47;;;;;;;4.80;4.50;;;;;;;24.40;59.98;101301.03;5013255;28;20487;-42
2023/07/06 07:34:15;;;;;;;4.73;4.40;;;;;;;23.64;64.97;101312.66;5015529;28;20432;-43
2023/07/06 07:36:42;;;;;;;5.20;4.73;;;;;;;22.99;73.92;101315.97;5016030;28;20487;-39
2023/07/06 07:39:14;;;;;;;6.40;5.50;;;;;;;22.40;76.75;101320.72;5015571;28;20436;-42
2023/07/06 07:41:42;;;;;;;4.90;4.37;;;;;;;21.76;78.15;101325.28;5015584;28;20491;-45
2023/07/06 07:44:11;;;;;;;6.20;4.97;;;;;;;21.13;86.38;101325.94;5016870;28;20939;-42
2023/07/06 07:46:39;;;;;;;5.47;4.70;;;;;;;21.08;93.67;101328.59;5016774;28;20435;-44
2023/07/06 07:49:07;;;;;;;5.07;4.67;;;;;;;20.91;95.38;101327.75;5016579;28;20428;-42
2023/07/06 07:51:35;;;;;;;7.97;5.27;;;;;;;21.06;97.66;101332.56;5016136;28;20648;-45
2023/07/06 07:54:03;;;;;;;6.77;4.67;;;;;;;21.18;95.59;101328.69;5015574;28;20456;-43
2023/07/06 07:56:32;;;;;;;5.00;4.60;;;;;;;20.93;93.28;101331.88;5015442;28;20424;-43
2023/07/06 07:59:00;;;;;;;4.73;4.30;;;;;;;21.34;85.34;101338.66;5016219;28;20461;-43
2023/07/06 08:01:28;;;;;;;4.57;4.27;;;;;;;22.44;82.15;101340.84;5015021;28;20440;-45
2023/07/06 08:03:57;;;;;;;4.73;4.43;;;;;;;23.23;74.68;101346.25;5016145;28;20908;-45
2023/07/06 08:06:25;;;;;;;4.10;3.90;;;;;;;23.43;70.97;101337.38;5016535;28;20532;-43
2023/07/06 08:08:52;;;;;;;4.70;4.40;;;;;;;23.56;74.00;101342.34;5016097;28;20435;-43
2023/07/06 08:11:22;;;;;;;4.33;3.93;;;;;;;23.87;68.91;101341.28;5015741;28;20469;-47
2023/07/06 08:13:53;;;;;;;4.60;4.33;;;;;;;23.94;67.93;101330.97;5019353;28;20524;-46
2023/07/06 08:16:22;;;;;;;4.10;3.80;;;;;;;23.56;64.96;101350.50;5019061;28;20428;-45
2023/07/06 08:18:51;;;;;;;4.07;3.47;;;;;;;23.47;67.90;101343.94;5019659;28;20417;-46
2023/07/06 08:21:32;;;;;;;8.00;4.03;;;;;;;23.12;67.83;101344.56;5018147;28;20877;-48
2023/07/06 08:24:18;;;;;;;3.70;3.40;;;;;;;22.88;68.33;101359.69;5018269;28;20483;-44
2023/07/06 08:26:46;;;;;;;6.13;4.00;;;;;;;22.67;67.02;101352.47;5020580;28;20862;-44
2023/07/06 08:29:16;;;;;;;4.63;4.20;;;;;;;22.86;68.80;101372.72;5018384;28;20424;-43
2023/07/06 08:31:45;;;;;;;5.27;3.73;;;;;;;23.37;67.73;101371.91;5018713;28;20476;-42
2023/07/06 08:34:16;;;;;;;3.40;3.10;;;;;;;23.21;65.49;101378.34;5018831;28;20465;-46
2023/07/06 08:36:44;;;;;;;4.37;3.97;;;;;;;23.03;65.96;101385.06;5018590;28;20437;-43
2023/07/06 08:39:13;;;;;;;3.97;3.57;;;;;;;22.84;66.79;101388.47;5019082;28;20520;-44
2023/07/06 08:41:44;;;;;;;4.30;3.80;;;;;;;22.82;68.54;101386.00;5018610;28;20495;-41
2023/07/06 08:44:15;;;;;;;4.20;3.80;;;;;;;22.72;68.32;101399.56;5018162;28;20472;-44
2023/07/06 08:46:50;;;;;;;4.53;4.13;;;;;;;22.67;67.07;101401.41;5018474;28;20428;-43
2023/07/06 08:49:24;;;;;;;5.13;3.63;;;;;;;22.69;67.77;101399.25;5018782;28;20445;-44
2023/07/06 08:52:02;;;;;;;3.50;3.30;;;;;;;22.38;66.52;101404.41;5018097;28;20491;-45
2023/07/06 08:54:34;;;;;;;3.57;3.27;;;;;;;22.82;64.74;101413.19;5018491;28;20519;-42
2023/07/06 08:57:03;;;;;;;3.53;3.33;;;;;;;22.59;66.82;101417.09;5019369;28;20472;-42
2023/07/06 08:59:37;;;;;;;3.47;3.27;;;;;;;22.50;66.46;101413.19;5019410;28;20456;-44
2023/07/06 09:02:17;;;;;;;4.07;3.63;;;;;;;22.05;64.68;101412.78;5019085;28;20452;-44
2023/07/06 09:04:46;;;;;;;3.70;3.40;;;;;;;22.01;66.63;101417.91;5017127;28;20544;-46
2023/07/06 09:07:16;;;;;;;3.17;3.00;;;;;;;22.40;69.64;101421.25;5019365;28;20461;-47
2023/07/06 09:09:47;;;;;;;6.67;3.47;;;;;;;22.74;66.69;101415.59;5019141;28;20470;-45
2023/07/06 09:12:20;;;;;;;4.63;3.50;;;;;;;22.41;63.72;101422.09;5019696;28;20552;-44
2023/07/06 09:14:51;;;;;;;4.07;3.77;;;;;;;22.24;65.63;101430.38;5020030;28;20452;-44
2023/07/06 09:17:21;;;;;;;3.20;3.00;;;;;;;22.24;64.53;101429.53;5018692;28;20432;-44
2023/07/06 09:19:51;;;;;;;3.80;3.23;;;;;;;22.91;66.13;101433.38;5018034;28;20463;-42
2023/07/06 09:22:21;;;;;;;3.10;2.80;;;;;;;22.98;61.66;101439.44;5018262;28;20772;-45
2023/07/06 09:24:50;;;;;;;3.60;3.30;;;;;;;22.91;63.39;101438.84;5016929;28;20539;-47
2023/07/06 09:27:20;;;;;;;4.43;3.17;;;;;;;22.66;60.24;101441.38;5018143;28;21018;-43
2023/07/06 09:29:57;;;;;;;3.23;2.93;;;;;;;22.40;58.91;101448.44;5016394;28;20468;-42
2023/07/06 09:32:27;;;;;;;3.93;3.13;;;;;;;22.13;60.74;101455.78;5017839;28;20459;-47
2023/07/06 09:34:57;;;;;;;3.57;3.27;;;;;;;22.15;62.48;101453.63;5018742;28;20425;-44
2023/07/06 09:37:26;;;;;;;3.67;3.37;;;;;;;22.24;64.60;101454.81;5019166;28;20432;-46
2023/07/06 09:39:59;;;;;;;3.57;3.30;;;;;;;22.25;64.45;101452.94;5017761;28;20464;-44
2023/07/06 09:42:29;;;;;;;3.33;3.03;;;;;;;22.31;64.63;101449.19;5017228;28;20429;-46
2023/07/06 09:44:57;;;;;;;4.20;3.87;;;;;;;22.23;63.46;101458.59;5018643;28;20871;-45
2023/07/06 09:47:28;;;;;;;4.00;3.70;;;;;;;22.50;64.77;101467.56;5017047;28;20571;-47
2023/07/06 09:50:00;;;;;;;3.37;3.07;;;;;;;22.65;61.94;101468.81;5017684;28;20510;-42
2023/07/06 09:52:29;;;;;;;3.73;3.40;;;;;;;22.75;62.34;101461.56;5017570;28;20421;-43
2023/07/06 09:55:15;;;;;;;3.73;3.53;;;;;;;23.19;61.53;101470.31;5017899;28;20425;-44
2023/07/06 09:57:44;;;;;;;3.80;3.50;;;;;;;23.32;62.44;101469.88;5017689;28;20922;-45
2023/07/06 10:00:17;;;;;;;3.47;3.27;;;;;;;23.75;59.58;101467.91;5017440;28;20708;-42
2023/07/06 10:02:57;;;;;;;3.80;3.50;;;;;;;24.42;59.21;101462.41;5016722;28;20803;-43
2023/07/06 10:05:36;;;;;;;3.53;3.23;;;;;;;24.67;58.21;101476.88;5017140;28;20460;-45
2023/07/06 10:08:12;;;;;;;2.93;2.83;;;;;;;24.64;54.53;101471.94;5017806;28;20491;-40
2023/07/06 10:10:53;;;;;;;3.67;3.50;;;;;;;24.38;54.33;101474.94;5017202;28;20464;-40
2023/07/06 10:13:31;;;;;;;4.17;3.87;;;;;;;24.71;53.22;101479.88;5017738;28;20437;-43
2023/07/06 10:16:06;;;;;;;4.67;3.13;;;;;;;24.79;52.15;101471.97;5016267;28;20459;-46
2023/07/06 10:18:42;;;;;;;3.20;3.10;;;;;;;24.34;52.95;101482.03;5016999;28;20439;-41
2023/07/06 10:21:18;;;;;;;3.50;3.07;;;;;;;24.06;52.28;101492.28;5016247;28;21068;-43
2023/07/06 10:23:54;;;;;;;3.60;3.30;;;;;;;23.47;52.47;101497.19;5016387;28;20479;-45
2023/07/06 10:26:28;;;;;;;3.00;2.80;;;;;;;23.06;54.60;101495.25;5016261;28;20475;-41
2023/07/06 10:29:01;;;;;;;2.97;2.77;;;;;;;23.15;56.15;101504.56;5015936;28;20440;-43
2023/07/06 10:31:32;;;;;;;3.20;2.90;;;;;;;23.88;56.04;101511.00;5016135;28;20476;-42
2023/07/06 10:34:08;;;;;;;4.70;3.80;;;;;;;24.17;56.06;101504.06;5016490;28;20452;-43
2023/07/06 10:36:36;;;;;;;3.60;3.30;;;;;;;23.91;55.02;101505.84;5015326;28;20557;-45
2023/07/06 10:39:13;;;;;;;3.73;3.53;;;;;;;23.31;55.90;101508.22;5010153;28;20464;-42
2023/07/06 10:41:49;;;;;;;3.90;3.70;;;;;;;23.07;59.00;101511.31;5010826;28;20444;-42
2023/07/06 10:44:46;;;;;;;4.03;3.73;;;;;;;23.23;60.88;101514.97;5010028;28;20472;-47
2023/07/06 10:47:37;;;;;;;6.90;3.63;;;;;;;23.44;60.51;101522.22;5010560;28;20433;-47
2023/07/06 10:50:28;;;;;;;3.70;3.10;;;;;;;24.17;58.14;101514.94;5009435;28;20967;-47
2023/07/06 10:53:02;;;;;;;4.33;3.97;;;;;;;24.31;58.48;101499.75;5010357;28;20424;-52
2023/07/06 10:55:34;;;;;;;3.50;3.20;;;;;;;24.51;58.45;101501.69;5010200;28;21007;-47
2023/07/06 10:58:17;;;;;;;2.90;2.70;;;;;;;24.12;54.18;101504.88;5010824;28;20504;-45
2023/07/06 11:00:45;;;;;;;3.37;3.13;;;;;;;23.85;54.71;101522.44;5010829;28;20547;-44
2023/07/06 11:03:18;;;;;;;3.50;3.20;;;;;;;23.91;54.50;101508.56;5009851;28;20440;-48
2023/07/06 11:06:05;;;;;;;3.10;2.90;;;;;;;24.70;55.38;101517.22;5010044;28;20472;-43
2023/07/06 11:09:07;;;;;;;3.90;3.53;;;;;;;24.56;51.88;101523.50;5010964;28;20436;-47
2023/07/06 11:11:38;;;;;;;4.73;3.43;;;;;;;23.94;53.32;101527.09;5009540;28;20448;-45
2023/07/06 11:14:31;;;;;;;3.33;2.97;;;;;;;24.21;53.42;101530.50;5009616;28;20464;-45
2023/07/06 11:17:03;;;;;;;3.10;2.80;;;;;;;24.57;52.96;101530.59;5010286;28;20425;-50
2023/07/06 11:19:34;;;;;;;3.23;2.93;;;;;;;24.48;50.50;101522.13;5011014;28;20461;-46
2023/07/06 11:22:09;;;;;;;3.50;3.30;;;;;;;25.01;52.90;101529.00;5009726;28;20445;-45
2023/07/06 11:24:42;;;;;;;3.27;3.10;;;;;;;24.45;52.00;101540.94;5010026;28;21064;-46
2023/07/06 11:27:24;;;;;;;3.33;3.13;;;;;;;23.86;50.41;101543.16;5008938;28;20962;-47
2023/07/06 11:29:55;;;;;;;3.93;3.07;;;;;;;23.76;52.85;101552.09;5010233;28;20514;-45